Time;durP1;ratioP1;P1;durP2;ratioP2;P2;SDS_P1;SDS_P2;PMS_P1;PMS_P2;Temp;Humidity;BMP_temperature;BMP_pressure;BME280_temperature;BME280_humidity;BME280_pressure;Samples;Min_cycle;Max_cycle;Signal;HPM_P1;HPM_P2
2022/03/09 00:00:45;;;;;;;13.07;9.67;;;4.40;66.70;;;;;;5050606;28;20235;-77
2022/03/09 00:03:12;;;;;;;16.10;10.43;;;4.50;66.00;;;;;;5054912;28;20200;-77
2022/03/09 00:05:40;;;;;;;12.20;9.73;;;4.50;66.60;;;;;;5035130;28;20200;-77
2022/03/09 00:08:07;;;;;;;11.80;9.63;;;4.40;67.90;;;;;;5056329;28;20201;-77
2022/03/09 00:10:34;;;;;;;12.10;9.13;;;4.60;68.20;;;;;;5031791;28;20225;-77
2022/03/09 00:13:02;;;;;;;10.27;8.63;;;5.10;67.60;;;;;;5023469;28;20205;-77
2022/03/09 00:15:31;;;;;;;14.17;9.47;;;5.50;65.60;;;;;;5049550;28;20212;-77
2022/03/09 00:17:58;;;;;;;14.17;9.50;;;5.70;63.90;;;;;;5048888;28;20203;-77
2022/03/09 00:20:25;;;;;;;13.40;10.27;;;5.60;62.20;;;;;;5050719;28;22117;-77
2022/03/09 00:22:53;;;;;;;13.93;9.30;;;5.50;61.30;;;;;;5047657;28;20592;-77
2022/03/09 00:25:20;;;;;;;13.73;10.27;;;5.30;61.30;;;;;;5032541;28;20202;-78
2022/03/09 00:27:48;;;;;;;13.57;9.37;;;4.90;62.30;;;;;;5050734;28;20202;-77
2022/03/09 00:30:15;;;;;;;12.30;9.27;;;4.50;64.80;;;;;;5053047;28;20224;-77
2022/03/09 00:32:44;;;;;;;11.47;9.17;;;4.30;65.10;;;;;;5028462;28;20197;-77
2022/03/09 00:35:11;;;;;;;13.57;9.27;;;4.10;66.00;;;;;;5028991;28;20200;-78
2022/03/09 00:37:39;;;;;;;11.80;8.83;;;4.10;66.90;;;;;;5033079;28;20220;-77
2022/03/09 00:40:07;;;;;;;11.80;8.33;;;4.00;68.20;;;;;;5033307;28;20548;-77
2022/03/09 00:42:36;;;;;;;11.33;9.13;;;3.90;70.10;;;;;;5038732;28;20223;-77
2022/03/09 00:45:04;;;;;;;13.80;8.83;;;3.90;70.50;;;;;;5037487;28;20234;-77
2022/03/09 00:47:31;;;;;;;11.27;8.47;;;3.90;70.50;;;;;;5056090;28;20186;-78
2022/03/09 00:50:00;;;;;;;13.87;9.07;;;3.80;70.60;;;;;;5056607;28;20203;-77
2022/03/09 00:52:28;;;;;;;11.37;8.80;;;3.70;70.40;;;;;;5036691;28;20592;-78
2022/03/09 00:54:55;;;;;;;12.73;9.37;;;3.90;69.10;;;;;;5031543;28;20213;-77
2022/03/09 00:57:23;;;;;;;13.47;9.50;;;3.70;69.50;;;;;;5036112;28;20213;-77
2022/03/09 00:59:50;;;;;;;11.43;8.93;;;3.80;69.70;;;;;;5037420;28;20595;-77
2022/03/09 01:02:18;;;;;;;15.17;9.90;;;3.70;69.30;;;;;;5042097;28;20223;-78
2022/03/09 01:04:45;;;;;;;11.67;8.93;;;3.60;70.00;;;;;;5021836;28;20227;-78
2022/03/09 01:07:14;;;;;;;11.90;8.80;;;3.70;70.60;;;;;;5028028;28;20204;-77
2022/03/09 01:09:41;;;;;;;14.83;10.00;;;3.70;71.80;;;;;;5044494;28;20198;-78
2022/03/09 01:12:09;;;;;;;13.10;9.03;;;3.90;71.90;;;;;;5035867;28;20218;-78
2022/03/09 01:14:37;;;;;;;12.13;8.37;;;3.90;71.50;;;;;;5039738;28;20189;-77
2022/03/09 01:17:04;;;;;;;11.13;9.53;;;4.20;70.70;;;;;;5066118;28;20205;-77
2022/03/09 01:19:32;;;;;;;11.20;8.97;;;3.90;70.90;;;;;;5034048;28;20220;-78
2022/03/09 01:21:59;;;;;;;12.70;8.77;;;3.70;71.00;;;;;;5022998;28;20237;-77
2022/03/09 01:24:28;;;;;;;12.50;9.43;;;3.60;72.40;;;;;;5028271;28;20212;-78
2022/03/09 01:26:56;;;;;;;12.93;9.00;;;3.60;72.90;;;;;;5029444;28;20204;-78
2022/03/09 01:29:23;;;;;;;11.50;8.93;;;3.90;69.10;;;;;;5035497;28;20210;-78
2022/03/09 01:31:50;;;;;;;13.07;9.40;;;3.40;71.70;;;;;;5054668;28;20220;-78
2022/03/09 01:34:18;;;;;;;12.00;8.77;;;3.60;72.50;;;;;;5046318;28;20203;-78
2022/03/09 01:36:45;;;;;;;14.17;8.60;;;3.50;72.70;;;;;;5034140;28;20207;-78
2022/03/09 01:39:12;;;;;;;11.77;8.77;;;3.10;74.30;;;;;;5054670;28;20195;-78
2022/03/09 01:41:41;;;;;;;10.43;8.67;;;3.00;76.60;;;;;;5042544;28;20221;-77
2022/03/09 01:44:10;;;;;;;12.83;9.47;;;3.40;75.50;;;;;;5036420;28;20646;-77
2022/03/09 01:46:38;;;;;;;13.27;8.83;;;3.50;76.00;;;;;;5034777;28;20198;-77
2022/03/09 01:49:06;;;;;;;14.17;9.10;;;3.50;74.70;;;;;;5056604;28;20205;-78
2022/03/09 01:51:36;;;;;;;11.60;8.37;;;3.60;74.60;;;;;;5037399;28;20212;-78
2022/03/09 01:54:04;;;;;;;10.60;8.83;;;3.60;73.00;;;;;;5035601;28;20203;-77
2022/03/09 01:56:33;;;;;;;10.80;7.97;;;3.80;72.50;;;;;;5037735;28;20206;-78
2022/03/09 01:59:03;;;;;;;12.53;9.37;;;3.70;72.00;;;;;;5027773;28;20207;-77
2022/03/09 02:01:31;;;;;;;10.90;8.53;;;3.70;72.80;;;;;;5026333;28;20228;-77
2022/03/09 02:03:59;;;;;;;12.57;9.33;;;3.70;73.00;;;;;;5060184;28;20203;-77
2022/03/09 02:06:26;;;;;;;11.70;9.50;;;3.70;74.60;;;;;;5031713;28;20213;-77
2022/03/09 02:11:41;;;;;;;11.03;8.30;;;3.90;73.40;;;;;;5039552;28;20201;-77
2022/03/09 02:14:32;;;;;;;11.47;8.17;;;4.00;72.40;;;;;;5053619;28;20203;-78
2022/03/09 02:17:00;;;;;;;13.67;9.40;;;4.30;71.90;;;;;;5032506;28;20216;-78
2022/03/09 02:19:28;;;;;;;15.27;9.23;;;4.10;71.90;;;;;;5055759;28;20200;-77
2022/03/09 02:22:02;;;;;;;11.63;9.33;;;4.10;71.40;;;;;;5037871;28;20235;-77
2022/03/09 02:24:31;;;;;;;10.90;9.20;;;3.80;72.90;;;;;;5033852;28;20207;-77
2022/03/09 02:26:59;;;;;;;14.10;9.90;;;3.60;73.90;;;;;;5038025;28;20205;-77
2022/03/09 02:29:26;;;;;;;11.73;8.97;;;3.30;75.40;;;;;;5032515;28;20216;-77
2022/03/09 02:31:53;;;;;;;11.77;9.33;;;3.30;77.20;;;;;;5033780;28;20219;-78
2022/03/09 02:34:21;;;;;;;13.37;9.17;;;3.40;76.80;;;;;;5033258;28;20215;-77
2022/03/09 02:36:48;;;;;;;15.07;9.23;;;3.70;75.20;;;;;;5051424;28;20221;-77
2022/03/09 02:39:16;;;;;;;13.40;9.43;;;3.70;75.00;;;;;;5036509;28;20204;-77
2022/03/09 02:41:45;;;;;;;13.97;9.17;;;3.90;73.30;;;;;;5033574;28;20221;-77
2022/03/09 02:44:13;;;;;;;13.67;10.13;;;3.90;72.70;;;;;;5051379;28;20203;-77
2022/03/09 02:46:40;;;;;;;12.13;8.13;;;3.70;73.40;;;;;;5034145;28;20208;-78
2022/03/09 02:49:08;;;;;;;12.07;8.50;;;3.80;73.50;;;;;;5043445;28;20199;-77
2022/03/09 02:51:35;;;;;;;12.50;9.50;;;3.80;72.70;;;;;;5050059;28;20214;-77
2022/03/09 02:54:02;;;;;;;11.23;8.33;;;3.90;73.00;;;;;;5047468;28;20203;-78
2022/03/09 02:56:30;;;;;;;12.23;8.67;;;4.10;73.00;;;;;;5047811;28;20262;-77
2022/03/09 02:58:59;;;;;;;11.17;9.07;;;4.10;72.10;;;;;;5035648;28;20195;-77
2022/03/09 03:01:26;;;;;;;12.37;8.50;;;3.90;72.50;;;;;;5051178;28;20228;-77
2022/03/09 03:03:54;;;;;;;11.13;8.20;;;3.60;73.20;;;;;;5033895;28;20210;-78
2022/03/09 03:06:21;;;;;;;11.90;9.03;;;3.50;74.10;;;;;;5042309;28;20210;-78
2022/03/09 03:09:19;;;;;;;11.23;8.53;;;3.40;74.60;;;;;;5056166;28;20199;-77
2022/03/09 03:11:48;;;;;;;10.23;8.03;;;3.60;74.80;;;;;;5050481;28;20222;-77
2022/03/09 03:14:17;;;;;;;12.67;8.13;;;3.60;73.90;;;;;;5054096;28;20223;-77
2022/03/09 03:16:45;;;;;;;12.77;8.37;;;3.60;73.90;;;;;;5046271;28;20202;-77
2022/03/09 03:19:12;;;;;;;12.03;8.73;;;3.50;74.40;;;;;;5033037;28;20199;-77
2022/03/09 03:21:39;;;;;;;11.87;8.27;;;3.50;74.60;;;;;;5041216;28;20609;-78
2022/03/09 03:24:07;;;;;;;11.53;8.93;;;3.70;74.70;;;;;;5029568;28;20202;-77
2022/03/09 03:26:34;;;;;;;13.73;9.03;;;3.50;74.50;;;;;;5032847;28;20198;-77
2022/03/09 03:29:02;;;;;;;11.00;9.00;;;3.40;74.80;;;;;;5031248;28;20197;-77
2022/03/09 03:31:30;;;;;;;12.43;8.80;;;3.10;75.60;;;;;;5046234;28;20221;-78
2022/03/09 03:33:58;;;;;;;10.97;8.60;;;3.10;76.70;;;;;;5049458;28;20221;-77
2022/03/09 03:36:25;;;;;;;10.93;8.73;;;2.80;78.60;;;;;;5032634;28;20202;-77
2022/03/09 03:38:53;;;;;;;11.07;8.90;;;2.80;80.20;;;;;;5052277;28;20198;-77
2022/03/09 03:41:20;;;;;;;10.47;8.60;;;3.20;77.90;;;;;;5037419;28;20238;-77
2022/03/09 03:43:48;;;;;;;9.73;7.70;;;3.70;77.30;;;;;;5036786;28;20214;-77
2022/03/09 03:46:15;;;;;;;10.53;8.43;;;3.90;75.10;;;;;;5033585;28;20197;-77
2022/03/09 03:48:44;;;;;;;10.23;8.27;;;3.90;73.90;;;;;;5033125;28;20216;-77
2022/03/09 03:51:11;;;;;;;10.67;8.23;;;3.70;73.70;;;;;;5028405;28;20216;-77
2022/03/09 03:53:39;;;;;;;13.03;8.43;;;3.30;74.00;;;;;;5033272;28;20207;-77
2022/03/09 03:56:06;;;;;;;12.47;8.43;;;3.20;75.80;;;;;;5033935;28;20213;-77
2022/03/09 03:58:34;;;;;;;12.30;8.33;;;3.00;77.90;;;;;;5043846;28;20206;-77
2022/03/09 04:01:01;;;;;;;10.43;7.83;;;2.80;77.20;;;;;;5042406;28;20219;-77
2022/03/09 04:03:28;;;;;;;11.73;7.67;;;2.70;78.70;;;;;;5053352;28;20660;-77
2022/03/09 04:05:57;;;;;;;10.93;7.17;;;2.40;80.60;;;;;;5034325;28;20202;-77
2022/03/09 04:08:24;;;;;;;10.60;7.73;;;2.40;80.30;;;;;;5033732;28;20201;-77
2022/03/09 04:10:52;;;;;;;9.83;6.93;;;2.60;79.70;;;;;;5037475;28;20220;-77
2022/03/09 04:13:19;;;;;;;8.07;5.73;;;3.30;72.80;;;;;;5036765;28;20198;-77
2022/03/09 04:15:47;;;;;;;7.10;5.37;;;3.60;72.10;;;;;;5045475;28;20728;-77
2022/03/09 04:18:14;;;;;;;8.00;5.37;;;4.30;64.90;;;;;;5030857;28;20554;-77
2022/03/09 04:20:41;;;;;;;8.47;5.63;;;4.50;63.10;;;;;;5026496;28;20238;-77
2022/03/09 04:23:10;;;;;;;9.83;6.40;;;4.30;65.50;;;;;;5053058;28;20216;-77
2022/03/09 04:25:37;;;;;;;9.17;6.23;;;4.10;66.80;;;;;;5042303;28;20219;-77
2022/03/09 04:28:05;;;;;;;7.83;5.70;;;4.10;66.20;;;;;;5044555;28;20191;-77
2022/03/09 04:30:33;;;;;;;8.20;6.60;;;4.10;66.90;;;;;;5056993;28;20220;-78
2022/03/09 04:33:00;;;;;;;8.23;7.10;;;4.30;65.40;;;;;;5034177;28;20205;-77
2022/03/09 04:35:28;;;;;;;9.30;6.70;;;4.30;65.50;;;;;;5039816;28;20207;-77
2022/03/09 04:37:55;;;;;;;9.00;6.33;;;4.50;65.10;;;;;;5037094;28;20201;-77
2022/03/09 04:40:24;;;;;;;8.67;6.33;;;4.70;65.80;;;;;;5037179;28;20662;-77
2022/03/09 04:42:51;;;;;;;9.63;6.33;;;4.80;64.60;;;;;;5037182;28;20216;-77
2022/03/09 04:45:18;;;;;;;12.07;6.83;;;5.00;64.10;;;;;;5035316;28;20719;-77
2022/03/09 04:47:46;;;;;;;12.37;7.50;;;5.00;64.20;;;;;;5033262;28;20213;-77
2022/03/09 04:50:13;;;;;;;11.77;7.53;;;5.00;63.30;;;;;;5039063;28;20204;-77
2022/03/09 04:52:41;;;;;;;10.63;7.50;;;4.70;65.80;;;;;;5040292;28;20191;-78
2022/03/09 04:55:09;;;;;;;11.60;8.57;;;4.70;65.80;;;;;;5052705;28;20211;-78
2022/03/09 04:57:38;;;;;;;10.40;8.13;;;4.40;65.60;;;;;;5060856;28;20208;-77
2022/03/09 05:00:08;;;;;;;13.60;9.20;;;4.20;66.60;;;;;;5049893;28;20204;-77
2022/03/09 05:02:35;;;;;;;13.23;9.10;;;4.00;67.70;;;;;;5033663;28;20224;-77
2022/03/09 05:05:03;;;;;;;16.13;8.53;;;4.10;67.30;;;;;;5032403;28;20695;-77
2022/03/09 05:07:31;;;;;;;10.53;8.17;;;4.20;66.20;;;;;;5037618;28;20196;-77
2022/03/09 05:09:59;;;;;;;12.73;7.87;;;4.30;65.80;;;;;;5050553;28;20290;-78
2022/03/09 05:12:26;;;;;;;9.13;7.43;;;4.50;65.50;;;;;;5032605;28;20220;-77
2022/03/09 05:14:55;;;;;;;9.47;7.77;;;4.10;65.90;;;;;;5046408;28;20211;-77
2022/03/09 05:17:22;;;;;;;10.50;8.07;;;4.00;66.30;;;;;;5029098;28;20561;-77
2022/03/09 05:19:50;;;;;;;10.70;8.83;;;4.00;67.10;;;;;;5033624;28;20206;-77
2022/03/09 05:22:17;;;;;;;11.73;9.40;;;4.10;66.70;;;;;;5031221;28;20236;-77
2022/03/09 05:24:44;;;;;;;12.90;8.43;;;4.20;67.90;;;;;;5057203;28;20196;-77
2022/03/09 05:27:12;;;;;;;10.47;8.13;;;4.50;67.60;;;;;;5041813;28;20226;-77
2022/03/09 05:29:39;;;;;;;13.07;9.50;;;4.40;65.90;;;;;;5035646;28;20703;-77
2022/03/09 05:32:09;;;;;;;12.97;9.77;;;4.30;66.40;;;;;;5032882;28;20214;-77
2022/03/09 05:34:36;;;;;;;12.97;10.37;;;4.20;66.50;;;;;;5048725;28;20194;-78
2022/03/09 05:37:04;;;;;;;16.43;11.53;;;4.10;66.60;;;;;;5032349;28;20733;-77
2022/03/09 05:39:31;;;;;;;17.10;10.77;;;4.10;67.90;;;;;;5032147;28;20220;-77
2022/03/09 05:41:59;;;;;;;16.83;10.67;;;4.10;66.90;;;;;;5034425;28;20219;-77
2022/03/09 05:44:26;;;;;;;15.70;9.27;;;4.00;67.70;;;;;;5036642;28;20199;-77
2022/03/09 05:46:54;;;;;;;13.77;9.40;;;4.20;67.10;;;;;;5033022;28;20192;-77
2022/03/09 05:49:24;;;;;;;14.23;9.67;;;4.40;69.40;;;;;;5050968;28;20201;-77
2022/03/09 05:51:52;;;;;;;12.47;8.93;;;4.40;69.60;;;;;;5024302;28;20216;-77
2022/03/09 05:54:20;;;;;;;12.77;8.77;;;4.40;69.10;;;;;;5033765;28;20214;-77
2022/03/09 05:56:47;;;;;;;12.63;8.43;;;4.40;68.80;;;;;;5022192;28;20213;-77
2022/03/09 05:59:15;;;;;;;16.00;9.33;;;4.30;67.50;;;;;;5031252;28;20203;-77
2022/03/09 06:01:42;;;;;;;11.87;9.37;;;4.20;67.30;;;;;;5026872;28;20234;-77
2022/03/09 06:04:10;;;;;;;16.57;9.13;;;4.00;68.40;;;;;;5042454;28;20215;-77
2022/03/09 06:06:39;;;;;;;14.97;8.97;;;4.00;68.60;;;;;;5030471;28;20202;-76
2022/03/09 06:09:06;;;;;;;10.37;7.57;;;3.80;67.70;;;;;;5056041;28;20202;-74
2022/03/09 06:15:30;;;;;;;14.20;9.40;;;6.50;79.30;;;;;;5057510;28;20179;-75
2022/03/09 06:18:08;;;;;;;14.70;11.00;;;6.40;65.00;;;;;;5039010;28;20677;-76
2022/03/09 06:20:38;;;;;;;11.07;8.00;;;4.90;64.30;;;;;;5042908;28;20219;-75
2022/03/09 06:23:08;;;;;;;14.53;9.80;;;4.50;65.70;;;;;;5031769;28;20209;-76
2022/03/09 06:25:36;;;;;;;12.63;8.63;;;4.40;66.40;;;;;;5042393;28;20201;-76
2022/03/09 06:28:25;;;;;;;11.53;8.07;;;4.20;65.80;;;;;;5037808;28;20206;-77
2022/03/09 06:30:53;;;;;;;9.17;6.60;;;4.10;66.10;;;;;;5051728;28;20572;-76
2022/03/09 06:33:21;;;;;;;7.73;5.87;;;4.60;62.30;;;;;;5033752;28;20194;-76
2022/03/09 06:35:49;;;;;;;11.50;7.47;;;4.80;61.80;;;;;;5038022;28;20201;-76
2022/03/09 06:38:18;;;;;;;12.60;8.70;;;4.60;62.40;;;;;;5041948;28;20229;-77
2022/03/09 06:40:45;;;;;;;15.10;9.70;;;4.80;64.30;;;;;;5058783;28;20221;-77
2022/03/09 06:43:18;;;;;;;13.30;9.53;;;4.70;65.50;;;;;;5046965;28;20576;-76
2022/03/09 06:45:45;;;;;;;13.83;9.90;;;4.50;65.70;;;;;;5035722;28;20304;-77
2022/03/09 06:48:47;;;;;;;13.17;9.40;;;4.40;66.80;;;;;;5059176;28;20201;-77
2022/03/09 06:51:40;;;;;;;12.27;8.70;;;4.50;67.60;;;;;;5043251;28;20599;-77
2022/03/09 06:54:08;;;;;;;12.27;8.43;;;4.60;66.10;;;;;;5036459;28;20213;-77
2022/03/09 06:56:40;;;;;;;15.70;8.80;;;4.70;65.70;;;;;;5018521;28;20195;-77
2022/03/09 06:59:29;;;;;;;11.83;9.10;;;4.60;65.70;;;;;;5037563;28;20212;-77
2022/03/09 07:01:56;;;;;;;12.70;9.90;;;4.70;66.20;;;;;;5052626;28;20217;-77
2022/03/09 07:04:24;;;;;;;12.43;9.87;;;4.80;67.00;;;;;;5034124;28;20194;-77
2022/03/09 07:06:51;;;;;;;16.00;10.27;;;4.70;67.70;;;;;;5031188;28;20215;-77
2022/03/09 07:09:21;;;;;;;15.80;10.00;;;4.60;68.10;;;;;;5052127;28;20191;-78
2022/03/09 07:11:49;;;;;;;15.60;10.20;;;4.40;68.50;;;;;;5024524;28;20219;-77
2022/03/09 07:14:16;;;;;;;12.73;10.20;;;4.60;69.20;;;;;;5040581;28;20678;-76
2022/03/09 07:17:19;;;;;;;17.53;10.83;;;4.50;68.60;;;;;;5039180;28;20209;-77
2022/03/09 07:19:46;;;;;;;15.63;9.90;;;4.60;68.00;;;;;;5034130;28;20200;-76
2022/03/09 07:22:14;;;;;;;14.73;10.70;;;4.70;67.40;;;;;;5049826;28;20231;-76
2022/03/09 07:24:43;;;;;;;11.37;9.27;;;4.80;67.30;;;;;;5047109;28;20220;-77
2022/03/09 07:27:11;;;;;;;13.97;9.73;;;4.90;67.40;;;;;;5044139;28;20203;-77
2022/03/09 07:29:44;;;;;;;13.90;10.10;;;5.10;66.80;;;;;;5029919;28;20200;-75
2022/03/09 07:32:14;;;;;;;18.10;9.90;;;5.20;66.90;;;;;;5028366;28;20229;-77
2022/03/09 07:34:41;;;;;;;18.37;9.67;;;5.20;66.20;;;;;;5056974;28;20562;-77
2022/03/09 07:37:09;;;;;;;13.60;10.00;;;5.20;66.30;;;;;;5047546;28;20197;-77
2022/03/09 07:39:37;;;;;;;15.30;10.17;;;5.30;66.60;;;;;;5030045;28;20219;-77
2022/03/09 07:42:06;;;;;;;13.50;9.00;;;5.40;66.00;;;;;;5052172;28;20217;-77
2022/03/09 07:44:34;;;;;;;16.43;11.03;;;5.60;66.30;;;;;;5034310;28;20216;-77
2022/03/09 07:47:05;;;;;;;11.97;9.23;;;5.50;65.30;;;;;;5036466;28;20237;-77
2022/03/09 07:49:33;;;;;;;11.80;9.53;;;5.60;64.80;;;;;;5056781;28;20208;-77
2022/03/09 07:52:01;;;;;;;12.53;9.60;;;5.70;64.00;;;;;;5031536;28;20252;-77
2022/03/09 07:54:34;;;;;;;12.03;9.00;;;5.70;64.80;;;;;;5057701;28;20208;-77
2022/03/09 07:57:35;;;;;;;15.70;9.23;;;5.80;63.30;;;;;;5044812;28;20198;-77
2022/03/09 08:00:04;;;;;;;15.57;10.50;;;6.00;62.50;;;;;;5029028;28;20479;-75
2022/03/09 08:02:39;;;;;;;12.53;9.87;;;6.20;63.60;;;;;;5054354;28;20230;-77
2022/03/09 08:05:07;;;;;;;15.83;10.53;;;6.20;64.10;;;;;;5040338;28;20205;-78
2022/03/09 08:07:34;;;;;;;13.77;9.70;;;6.20;64.00;;;;;;5032515;28;20209;-78
2022/03/09 08:10:21;;;;;;;10.93;8.23;;;6.40;63.60;;;;;;5032821;28;20197;-77
2022/03/09 08:12:49;;;;;;;13.30;9.23;;;6.40;61.30;;;;;;5043826;28;20216;-76
2022/03/09 08:15:18;;;;;;;12.00;9.17;;;6.50;61.00;;;;;;5051852;28;20193;-76
2022/03/09 08:17:45;;;;;;;13.50;10.30;;;6.60;59.90;;;;;;5037643;28;20194;-77
2022/03/09 08:20:13;;;;;;;11.57;9.00;;;6.70;61.00;;;;;;5032706;28;20203;-79
2022/03/09 08:22:42;;;;;;;11.77;7.77;;;6.80;60.00;;;;;;5046088;28;20228;-77
2022/03/09 08:25:10;;;;;;;9.20;6.63;;;7.10;57.30;;;;;;5038098;28;20205;-77
2022/03/09 08:27:45;;;;;;;9.33;6.50;;;7.30;56.50;;;;;;5035974;28;20210;-76
2022/03/09 08:30:14;;;;;;;8.73;6.60;;;7.40;54.50;;;;;;5064220;28;20189;-77
2022/03/09 08:32:41;;;;;;;9.07;6.90;;;7.50;53.20;;;;;;5046251;28;20205;-77
2022/03/09 08:35:17;;;;;;;8.70;6.47;;;7.50;52.90;;;;;;5054543;28;20201;-77
2022/03/09 08:37:45;;;;;;;11.00;6.37;;;7.50;52.00;;;;;;5038401;28;20194;-76
2022/03/09 08:40:12;;;;;;;8.23;6.77;;;7.60;52.30;;;;;;5052166;28;20205;-78
2022/03/09 08:42:46;;;;;;;13.87;6.77;;;7.80;52.00;;;;;;5044190;28;20213;-78
2022/03/09 08:45:14;;;;;;;8.83;6.27;;;7.90;52.20;;;;;;5053694;28;20668;-77
2022/03/09 08:47:42;;;;;;;9.43;6.70;;;7.80;50.80;;;;;;5055017;28;20186;-78
2022/03/09 08:50:10;;;;;;;7.43;5.97;;;7.90;50.70;;;;;;5052234;28;20207;-76
2022/03/09 08:52:38;;;;;;;9.63;6.57;;;8.10;51.70;;;;;;5029425;28;20223;-77
2022/03/09 08:55:07;;;;;;;8.77;6.50;;;8.10;50.30;;;;;;5034263;28;20210;-76
2022/03/09 08:57:34;;;;;;;9.77;6.20;;;8.10;49.10;;;;;;5031927;28;20665;-78
2022/03/09 09:00:03;;;;;;;8.13;6.37;;;8.10;48.60;;;;;;5025376;28;20203;-76
2022/03/09 09:02:32;;;;;;;7.47;6.17;;;8.20;48.50;;;;;;5042582;28;20482;-76
2022/03/09 09:04:59;;;;;;;11.03;6.67;;;8.20;47.10;;;;;;5026288;28;20233;-76
2022/03/09 09:07:26;;;;;;;9.10;6.30;;;8.30;47.40;;;;;;5033894;28;20573;-76
2022/03/09 09:09:54;;;;;;;8.03;6.70;;;8.30;47.60;;;;;;5035242;28;20213;-76
2022/03/09 09:12:22;;;;;;;7.80;6.37;;;8.50;47.50;;;;;;5033834;28;20218;-76
2022/03/09 09:14:49;;;;;;;9.50;6.73;;;8.60;47.20;;;;;;5041339;28;20546;-77
2022/03/09 09:17:17;;;;;;;6.83;5.70;;;8.60;46.60;;;;;;5031323;28;20194;-77
2022/03/09 09:19:45;;;;;;;7.73;6.30;;;8.60;46.20;;;;;;5024756;28;20657;-77
2022/03/09 09:22:13;;;;;;;7.73;6.20;;;8.70;46.10;;;;;;5029093;28;20249;-76
2022/03/09 09:24:40;;;;;;;8.23;7.03;;;8.70;46.00;;;;;;5042961;28;20225;-77
2022/03/09 09:27:07;;;;;;;12.40;7.17;;;8.80;45.80;;;;;;5034302;28;20194;-77
2022/03/09 09:29:36;;;;;;;8.07;6.33;;;8.80;45.50;;;;;;5034274;28;20195;-77
2022/03/09 09:32:04;;;;;;;9.23;6.30;;;8.90;45.90;;;;;;5032741;28;20223;-76
2022/03/09 09:34:31;;;;;;;8.17;6.03;;;8.90;45.10;;;;;;5024014;28;20195;-76
2022/03/09 09:37:02;;;;;;;8.03;6.17;;;9.00;45.00;;;;;;5029372;28;20559;-76
2022/03/09 09:39:29;;;;;;;8.23;6.77;;;9.00;44.80;;;;;;5033721;28;20202;-76
2022/03/09 09:41:57;;;;;;;7.10;5.80;;;9.10;44.10;;;;;;5033221;28;20222;-75
2022/03/09 09:44:25;;;;;;;8.80;6.37;;;9.10;43.80;;;;;;5033734;28;20219;-75
2022/03/09 09:46:53;;;;;;;8.80;6.57;;;9.30;43.90;;;;;;5031830;28;20213;-76
2022/03/09 09:49:24;;;;;;;8.73;6.00;;;9.40;44.30;;;;;;5051588;28;20194;-76
2022/03/09 09:51:52;;;;;;;8.77;6.60;;;9.60;44.70;;;;;;5024562;28;20226;-76
2022/03/09 09:54:23;;;;;;;8.23;6.17;;;9.70;44.10;;;;;;5064776;28;20206;-77
2022/03/09 09:56:51;;;;;;;8.67;7.03;;;9.60;43.10;;;;;;5022591;28;20198;-76
2022/03/09 09:59:18;;;;;;;7.57;6.10;;;9.60;43.40;;;;;;5031525;28;20206;-76
2022/03/09 10:01:46;;;;;;;7.27;6.47;;;9.70;43.00;;;;;;5034357;28;20226;-77
2022/03/09 10:04:13;;;;;;;7.20;6.23;;;9.80;42.80;;;;;;5040512;28;20218;-77
2022/03/09 10:06:40;;;;;;;7.93;6.37;;;9.90;43.90;;;;;;5041584;28;20201;-77
2022/03/09 10:09:09;;;;;;;8.63;6.60;;;9.80;43.00;;;;;;5040834;28;20201;-76
2022/03/09 10:11:49;;;;;;;8.33;6.80;;;9.80;42.90;;;;;;5045121;28;20576;-76
2022/03/09 10:15:05;;;;;;;7.90;6.93;;;9.90;42.60;;;;;;5038937;28;20198;-76
2022/03/09 10:17:38;;;;;;;8.17;6.33;;;9.80;42.40;;;;;;5033548;28;20198;-77
2022/03/09 10:20:55;;;;;;;8.17;6.70;;;9.80;42.00;;;;;;5043980;28;20671;-77
2022/03/09 10:23:23;;;;;;;9.33;7.13;;;10.00;41.60;;;;;;5039063;28;20199;-77
2022/03/09 10:26:01;;;;;;;10.67;7.00;;;10.00;40.40;;;;;;5052839;28;20190;-77
2022/03/09 10:28:43;;;;;;;8.27;6.80;;;10.20;41.90;;;;;;5035722;28;20194;-78
2022/03/09 10:31:12;;;;;;;8.23;6.73;;;10.20;41.20;;;;;;5023706;28;20571;-77
2022/03/09 10:33:45;;;;;;;7.90;7.10;;;10.10;40.60;;;;;;5035056;28;20198;-77
2022/03/09 10:36:17;;;;;;;7.60;6.80;;;10.30;41.60;;;;;;5043075;28;20201;-77
2022/03/09 10:39:10;;;;;;;8.90;6.93;;;10.30;40.30;;;;;;5034221;28;20213;-76
2022/03/09 10:41:39;;;;;;;8.47;7.03;;;10.50;40.90;;;;;;5031130;28;20234;-76
2022/03/09 10:44:08;;;;;;;10.17;8.00;;;10.50;40.40;;;;;;5037934;28;20190;-78
2022/03/09 10:46:42;;;;;;;9.20;6.87;;;10.80;41.70;;;;;;5045999;28;20190;-78
2022/03/09 10:49:12;;;;;;;9.40;7.23;;;10.80;39.70;;;;;;5034685;28;20198;-77
2022/03/09 10:51:42;;;;;;;9.93;7.37;;;10.90;39.80;;;;;;5050234;28;20706;-77
2022/03/09 10:54:11;;;;;;;8.70;7.77;;;11.00;39.90;;;;;;5044491;28;20227;-78
2022/03/09 10:56:39;;;;;;;10.70;7.43;;;10.70;38.50;;;;;;5059302;28;20187;-78
2022/03/09 10:59:13;;;;;;;8.97;7.43;;;10.80;39.10;;;;;;5035216;28;20233;-77
2022/03/09 11:01:42;;;;;;;8.73;7.17;;;10.90;38.80;;;;;;5055502;28;20225;-77
2022/03/09 11:04:16;;;;;;;8.63;7.60;;;11.00;38.70;;;;;;5051188;28;20187;-77
2022/03/09 11:06:47;;;;;;;9.37;7.37;;;11.20;39.50;;;;;;5031714;28;20203;-77
2022/03/09 11:09:17;;;;;;;8.80;7.00;;;11.40;38.60;;;;;;5043701;28;20206;-77
2022/03/09 11:11:46;;;;;;;12.40;7.97;;;11.40;38.30;;;;;;5031220;28;20229;-77
2022/03/09 11:14:16;;;;;;;8.60;7.50;;;11.60;38.10;;;;;;5055263;28;20588;-77
2022/03/09 11:16:44;;;;;;;8.13;7.17;;;11.70;37.60;;;;;;5051240;28;20194;-78
2022/03/09 11:19:13;;;;;;;8.97;7.30;;;11.70;37.80;;;;;;5048236;28;20203;-79
2022/03/09 11:21:42;;;;;;;10.35;7.40;;;11.90;37.80;;;;;;5037183;28;20214;-78
2022/03/09 11:24:11;;;;;;;7.93;7.00;;;11.80;35.90;;;;;;5046451;28;20198;-79
2022/03/09 11:26:42;;;;;;;10.57;8.30;;;12.00;37.00;;;;;;5043049;28;20198;-78
2022/03/09 11:29:16;;;;;;;9.13;7.68;;;11.90;35.70;;;;;;5055461;28;20676;-79
2022/03/09 11:31:51;;;;;;;8.00;7.20;;;12.10;36.30;;;;;;5038750;28;20235;-79
2022/03/09 11:34:37;;;;;;;10.73;7.97;;;12.10;36.00;;;;;;5058476;28;20190;-79
2022/03/09 11:37:06;;;;;;;8.55;6.97;;;12.20;36.00;;;;;;5041173;28;20198;-79
2022/03/09 11:39:34;;;;;;;9.27;7.03;;;12.50;35.10;;;;;;5045600;28;20198;-79
2022/03/09 11:42:34;;;;;;;8.93;7.77;;;12.50;34.40;;;;;;5037287;28;20250;-79
2022/03/09 11:45:32;;;;;;;9.80;7.25;;;12.50;35.60;;;;;;5033875;28;20195;-79
2022/03/09 11:48:07;;;;;;;8.40;7.32;;;12.60;37.50;;;;;;5040998;28;20194;-79
2022/03/09 11:50:56;;;;;;;9.13;6.97;;;13.00;36.70;;;;;;5061797;28;20198;-79
2022/03/09 11:53:41;;;;;;;9.45;7.15;;;12.80;36.00;;;;;;5027612;28;20210;-79
2022/03/09 11:56:51;;;;;;;8.75;7.70;;;12.90;36.60;;;;;;5035312;28;20218;-79
2022/03/09 11:59:22;;;;;;;8.60;7.35;;;12.90;36.20;;;;;;4981959;28;20216;-79
2022/03/09 12:02:19;;;;;;;9.07;7.20;;;13.20;35.70;;;;;;4988211;28;20229;-79
2022/03/09 12:04:53;;;;;;;7.97;7.18;;;13.80;34.80;;;;;;5044986;28;20206;-79
2022/03/09 12:07:57;;;;;;;9.20;7.57;;;13.70;34.80;;;;;;5039098;28;20199;-79
2022/03/09 12:10:50;;;;;;;9.10;6.82;;;13.90;34.50;;;;;;5043833;28;20198;-80
2022/03/09 12:13:32;;;;;;;7.97;6.60;;;13.70;33.00;;;;;;5057099;28;20194;-80
2022/03/09 12:16:12;;;;;;;7.97;7.18;;;13.50;33.90;;;;;;5031061;28;20206;-79
2022/03/09 12:18:46;;;;;;;8.95;7.43;;;13.60;35.90;;;;;;5041259;28;20547;-79
2022/03/09 12:21:17;;;;;;;9.07;7.63;;;14.10;36.10;;;;;;5040537;28;20226;-79
2022/03/09 12:24:19;;;;;;;8.23;7.25;;;14.20;34.40;;;;;;5041783;28;20210;-78
2022/03/09 12:26:49;;;;;;;9.35;7.72;;;14.20;32.80;;;;;;5055477;28;20658;-79
2022/03/09 12:29:40;;;;;;;9.05;8.15;;;14.70;32.80;;;;;;5036310;28;20709;-78
2022/03/09 12:32:13;;;;;;;8.48;7.13;;;16.70;31.70;;;;;;5033046;28;20219;-77
2022/03/09 12:34:43;;;;;;;11.63;7.90;;;16.80;34.60;;;;;;5029409;28;20190;-77
2022/03/09 12:37:13;;;;;;;9.30;7.25;;;16.60;35.70;;;;;;5045887;28;20202;-77
2022/03/09 12:39:47;;;;;;;8.23;7.43;;;15.80;36.90;;;;;;5037018;28;20205;-77
2022/03/09 12:42:18;;;;;;;8.43;7.57;;;16.40;35.00;;;;;;5048962;28;20221;-79
2022/03/09 12:44:47;;;;;;;8.98;7.45;;;17.20;33.10;;;;;;5046385;28;20509;-79
2022/03/09 12:47:15;;;;;;;8.90;7.70;;;17.80;31.60;;;;;;5042998;28;20202;-79
2022/03/09 12:49:46;;;;;;;8.23;7.45;;;16.70;30.90;;;;;;5043172;28;20191;-79
2022/03/09 12:52:16;;;;;;;8.88;7.65;;;17.10;31.00;;;;;;5038927;28;20229;-79
2022/03/09 12:54:46;;;;;;;9.77;7.80;;;16.50;31.50;;;;;;5041934;28;20202;-79
2022/03/09 12:57:16;;;;;;;8.55;7.53;;;15.60;30.60;;;;;;5058829;28;20537;-79
2022/03/09 12:59:55;;;;;;;7.93;7.07;;;16.60;31.60;;;;;;5057698;28;20198;-79
2022/03/09 13:02:23;;;;;;;9.13;7.90;;;16.80;31.70;;;;;;5060642;28;20214;-79
2022/03/09 13:04:59;;;;;;;9.25;7.15;;;18.10;31.40;;;;;;5037182;28;20210;-79
2022/03/09 13:07:26;;;;;;;8.35;7.45;;;17.60;30.20;;;;;;5044399;28;20198;-79
2022/03/09 13:10:06;;;;;;;9.63;7.85;;;17.30;28.80;;;;;;5022018;28;20203;-79
2022/03/09 13:12:34;;;;;;;8.48;7.65;;;16.80;28.70;;;;;;5026603;28;20214;-79